SBRB/RBR METAR and TAF weather

Enter ICAO airport designator
Station Type Date Time Source
SBRB METAR 2020/08/15 10:00 UTC NOAA

SBRB 151000Z 28003KT CAVOK 23/22 Q1008


Station Type Date Time Source
SBRB Decoded METAR 2020/08/15 10:00 UTC NOAA

Rio Branco, Brazil (SBRB) 10-00S 067-48W 143M
Aug 15, 2020 - 06:00 AM EDT / 2020.08.15 1000 UTC
Wind: from the W (280 degrees) at 3 MPH (3 KT):0
Visibility: greater than 7 mile(s):0
Temperature: 73 F (23 C)
Dew Point: 71 F (22 C)
Relative Humidity: 94%
Pressure (altimeter): 29.77 in. Hg (1008 hPa)
ob: SBRB 151000Z 28003KT CAVOK 23/22 Q1008
cycle: 10

Station Type Date Time Source
SBRB TAF 2020/08/15 12:06 UTC NOAA

TAF SBRB 150900Z 1512/1524 32005KT 7000 SCT030 TN25/1512Z TX34/1519Z PROB40 1512/1515 4000 FU
BECMG 1517/1519 SCT025 FEW030TCU
RMK PEU

Example: see airport list